Time;durP1;ratioP1;P1;durP2;ratioP2;P2;SDS_P1;SDS_P2;PMS_P1;PMS_P2;Temp;Humidity;BMP_temperature;BMP_pressure;BME280_temperature;BME280_humidity;BME280_pressure;Samples;Min_cycle;Max_cycle;Signal;HPM_P1;HPM_P2
2023/06/04 00:00:45;;;;;;;1999.90;999.90;;;9.80;99.90;;;;;;5101162;28;20550;-70
2023/06/04 00:03:11;;;;;;;1999.90;999.90;;;9.80;99.90;;;;;;5094875;28;20856;-71
2023/06/04 00:05:38;;;;;;;1999.90;999.90;;;10.00;99.90;;;;;;5103039;28;20481;-71
2023/06/04 00:08:05;;;;;;;1999.90;999.90;;;9.80;99.90;;;;;;5111561;27;20419;-71
2023/06/04 00:10:33;;;;;;;1999.90;999.90;;;9.70;99.90;;;;;;5104771;27;20453;-72
2023/06/04 00:13:01;;;;;;;1999.90;999.90;;;9.70;99.90;;;;;;5104815;27;20428;-72
2023/06/04 00:15:28;;;;;;;1999.90;999.90;;;9.90;99.90;;;;;;5093395;28;20425;-71
2023/06/04 00:17:56;;;;;;;1999.90;999.90;;;10.00;99.90;;;;;;5109252;27;20425;-72
2023/06/04 00:20:23;;;;;;;1999.90;999.90;;;9.90;99.90;;;;;;5111620;27;20432;-71
2023/06/04 00:22:50;;;;;;;1999.90;999.90;;;9.80;99.90;;;;;;5100280;28;20984;-71
2023/06/04 00:25:16;;;;;;;1999.90;999.90;;;9.90;99.90;;;;;;5102461;27;20920;-71
2023/06/04 00:27:43;;;;;;;1999.90;999.90;;;10.00;99.90;;;;;;5110091;27;20435;-72
2023/06/04 00:30:12;;;;;;;1999.90;999.90;;;9.80;99.90;;;;;;5111933;28;20909;-71
2023/06/04 00:32:39;;;;;;;1999.90;999.90;;;9.90;99.90;;;;;;5100752;28;20848;-71
2023/06/04 00:35:07;;;;;;;1999.90;999.90;;;9.80;99.90;;;;;;5104467;28;20521;-71
2023/06/04 00:37:34;;;;;;;1999.90;999.90;;;9.70;99.90;;;;;;5093761;28;20473;-71
2023/06/04 00:40:00;;;;;;;1999.90;999.90;;;9.60;99.90;;;;;;5107948;28;20432;-71
2023/06/04 00:42:27;;;;;;;1999.90;999.90;;;9.60;99.90;;;;;;5108617;28;20428;-70
2023/06/04 00:44:58;;;;;;;1999.90;999.90;;;9.40;99.90;;;;;;5099889;28;20434;-71
2023/06/04 00:47:26;;;;;;;1999.90;999.90;;;9.50;99.90;;;;;;5105619;28;20429;-73
2023/06/04 00:49:57;;;;;;;1999.90;999.90;;;9.80;99.90;;;;;;5100018;28;20798;-73
2023/06/04 00:52:25;;;;;;;1999.90;999.90;;;9.90;99.90;;;;;;5108557;28;20432;-73
2023/06/04 00:54:54;;;;;;;1999.90;999.90;;;10.10;99.90;;;;;;5109243;28;20923;-72
2023/06/04 00:57:21;;;;;;;1999.90;999.90;;;10.00;99.90;;;;;;5100719;28;20438;-72
2023/06/04 00:59:47;;;;;;;1999.90;999.90;;;9.80;99.90;;;;;;5092109;28;20477;-73
2023/06/04 01:02:16;;;;;;;1999.90;999.90;;;9.80;99.90;;;;;;5095925;28;20477;-73
2023/06/04 01:04:49;;;;;;;1999.90;999.90;;;10.00;99.90;;;;;;5107290;28;20497;-70
2023/06/04 01:07:17;;;;;;;1999.90;999.90;;;10.00;99.90;;;;;;5104757;27;20428;-73
2023/06/04 01:09:44;;;;;;;1999.90;999.90;;;10.00;99.90;;;;;;5104576;27;20430;-73
2023/06/04 01:12:12;;;;;;;1999.90;999.90;;;10.00;99.90;;;;;;5095598;28;20425;-72
2023/06/04 01:14:39;;;;;;;1999.90;999.90;;;10.00;99.90;;;;;;5109334;28;20428;-72
2023/06/04 01:17:13;;;;;;;1999.90;999.90;;;9.90;99.90;;;;;;5118292;27;21356;-73
2023/06/04 01:20:11;;;;;;;1999.90;999.90;;;10.00;99.90;;;;;;5105777;27;20492;-73
2023/06/04 01:22:44;;;;;;;1999.90;999.90;;;10.00;99.90;;;;;;5101992;28;20435;-73
2023/06/04 01:25:19;;;;;;;1999.90;999.90;;;10.10;99.90;;;;;;5099957;28;20455;-74
2023/06/04 01:27:48;;;;;;;1999.90;999.90;;;10.20;99.90;;;;;;5109637;27;20427;-72
2023/06/04 01:30:15;;;;;;;1999.90;999.90;;;10.20;99.90;;;;;;5105156;28;20489;-73
2023/06/04 01:32:42;;;;;;;1999.90;999.90;;;10.20;99.90;;;;;;5112192;28;20473;-73
2023/06/04 01:35:12;;;;;;;1999.90;999.90;;;10.20;99.90;;;;;;5098072;28;20430;-72
2023/06/04 01:37:39;;;;;;;1999.90;999.90;;;10.30;99.90;;;;;;5115395;27;20431;-73
2023/06/04 01:40:08;;;;;;;1999.90;999.90;;;10.40;99.90;;;;;;5110327;28;20477;-73
2023/06/04 01:42:34;;;;;;;1999.90;999.90;;;10.40;99.90;;;;;;5111666;27;20434;-73
2023/06/04 01:45:01;;;;;;;1999.90;999.90;;;10.10;99.90;;;;;;5101267;28;20849;-73
2023/06/04 01:47:28;;;;;;;1999.90;999.90;;;10.10;99.90;;;;;;5103030;27;20431;-73
2023/06/04 01:49:54;;;;;;;1999.90;999.90;;;10.10;99.90;;;;;;5109534;28;20428;-73
2023/06/04 01:52:23;;;;;;;1999.90;999.90;;;10.00;99.90;;;;;;5110637;28;20432;-73
2023/06/04 01:54:52;;;;;;;1999.90;999.90;;;9.60;99.90;;;;;;5105044;28;20436;-71
2023/06/04 01:57:19;;;;;;;1999.90;999.90;;;9.60;99.90;;;;;;5106733;27;20777;-67
2023/06/04 01:59:46;;;;;;;1999.90;999.90;;;9.70;99.90;;;;;;5096722;27;20837;-68
2023/06/04 02:02:13;;;;;;;1999.90;999.90;;;9.80;99.90;;;;;;5109347;28;21456;-71
2023/06/04 02:04:41;;;;;;;1999.90;999.90;;;9.70;99.90;;;;;;5110537;28;20435;-69
2023/06/04 02:07:09;;;;;;;1999.90;999.90;;;9.60;99.90;;;;;;5112651;27;20921;-70
2023/06/04 02:09:37;;;;;;;1999.90;999.90;;;9.40;99.90;;;;;;5108506;27;20455;-71
2023/06/04 02:12:04;;;;;;;1999.90;999.90;;;9.40;99.90;;;;;;5105394;28;20485;-70
2023/06/04 02:14:31;;;;;;;1999.90;999.90;;;9.30;99.90;;;;;;5107221;28;20763;-70
2023/06/04 02:16:58;;;;;;;1999.90;999.90;;;9.10;99.90;;;;;;5114228;27;20432;-68
2023/06/04 02:19:25;;;;;;;1999.90;999.90;;;9.10;99.90;;;;;;5097759;28;20414;-70
2023/06/04 02:21:52;;;;;;;1999.90;999.90;;;9.00;99.90;;;;;;5095896;28;20922;-71
2023/06/04 02:24:19;;;;;;;1999.90;999.90;;;8.80;99.90;;;;;;5109613;28;20455;-70
2023/06/04 02:26:47;;;;;;;1999.90;999.90;;;8.90;99.90;;;;;;5105881;27;20594;-70
2023/06/04 02:29:13;;;;;;;1999.90;999.90;;;8.90;99.90;;;;;;5111923;27;20428;-70
2023/06/04 02:31:40;;;;;;;1999.90;999.90;;;9.00;99.90;;;;;;5101737;28;20485;-70
2023/06/04 02:34:06;;;;;;;1999.90;999.90;;;9.10;99.90;;;;;;5097098;28;20436;-71
2023/06/04 02:36:33;;;;;;;1999.90;999.90;;;9.20;99.90;;;;;;5123467;27;20483;-71
2023/06/04 02:39:01;;;;;;;1999.90;999.90;;;9.10;99.90;;;;;;5105809;28;20424;-71
2023/06/04 02:41:27;;;;;;;1999.90;999.90;;;9.20;99.90;;;;;;5109834;28;20435;-72
2023/06/04 02:43:55;;;;;;;1999.90;999.90;;;9.10;99.90;;;;;;5093382;28;20425;-72
2023/06/04 02:46:22;;;;;;;1999.90;999.90;;;9.00;99.90;;;;;;5120667;27;20483;-72
2023/06/04 02:48:48;;;;;;;1999.90;999.90;;;9.00;99.90;;;;;;5104246;28;20425;-70
2023/06/04 02:51:15;;;;;;;1999.90;999.90;;;9.00;99.90;;;;;;5104344;28;20420;-71
2023/06/04 02:53:42;;;;;;;1999.90;999.90;;;9.10;99.90;;;;;;5107882;28;20431;-72
2023/06/04 02:56:08;;;;;;;1999.90;999.90;;;9.10;99.90;;;;;;5104016;27;20919;-71
2023/06/04 02:58:39;;;;;;;1999.90;999.90;;;9.00;99.90;;;;;;5109471;27;20489;-72
2023/06/04 03:01:07;;;;;;;1999.90;999.90;;;9.00;99.90;;;;;;5102461;28;20521;-72
2023/06/04 03:03:34;;;;;;;1999.90;999.90;;;9.00;99.90;;;;;;5110962;27;20474;-71
2023/06/04 03:06:02;;;;;;;1999.90;999.90;;;9.00;99.90;;;;;;5105004;28;20429;-71
2023/06/04 03:08:28;;;;;;;1999.90;999.90;;;8.90;99.90;;;;;;5115068;27;20992;-71
2023/06/04 03:10:55;;;;;;;1999.90;999.90;;;8.80;99.90;;;;;;5112022;27;20451;-72
2023/06/04 03:13:22;;;;;;;1999.90;999.90;;;8.90;99.90;;;;;;5107607;28;20492;-72
2023/06/04 03:15:49;;;;;;;1999.90;999.90;;;9.00;99.90;;;;;;5106361;28;20995;-71
2023/06/04 03:18:16;;;;;;;1999.90;999.90;;;8.70;99.90;;;;;;5098422;28;20428;-71
2023/06/04 03:20:43;;;;;;;1999.90;999.90;;;8.70;99.90;;;;;;5113892;27;20426;-70
2023/06/04 03:23:10;;;;;;;1999.90;999.90;;;8.70;99.90;;;;;;5100579;28;20537;-72
2023/06/04 03:25:36;;;;;;;1999.90;999.90;;;8.90;99.90;;;;;;5106102;28;20499;-71
2023/06/04 03:28:03;;;;;;;1999.90;999.90;;;8.90;99.90;;;;;;5103741;28;20916;-72
2023/06/04 03:30:30;;;;;;;1999.90;999.90;;;9.00;99.90;;;;;;5113700;27;20789;-71
2023/06/04 03:32:56;;;;;;;1999.90;999.90;;;9.00;99.90;;;;;;5112441;27;20855;-72
2023/06/04 03:35:24;;;;;;;1999.90;999.90;;;9.00;99.90;;;;;;5101014;28;20477;-72
2023/06/04 03:37:51;;;;;;;1999.90;999.90;;;9.00;99.90;;;;;;5107430;28;20439;-72
2023/06/04 03:40:18;;;;;;;1999.90;999.90;;;8.90;99.90;;;;;;5109413;28;20424;-71
2023/06/04 03:42:44;;;;;;;1999.90;999.90;;;8.80;99.90;;;;;;5113607;27;20432;-71
2023/06/04 03:45:11;;;;;;;1999.90;999.90;;;8.90;99.90;;;;;;5103098;28;20469;-71
2023/06/04 03:47:39;;;;;;;1999.90;999.90;;;9.00;99.90;;;;;;5097982;28;20428;-71
2023/06/04 03:50:06;;;;;;;1999.90;999.90;;;9.00;99.90;;;;;;5104508;28;20934;-71
2023/06/04 03:52:34;;;;;;;1999.90;999.90;;;9.10;99.90;;;;;;5115982;27;20475;-69
2023/06/04 03:55:01;;;;;;;1999.90;999.90;;;9.20;99.90;;;;;;5113422;27;20511;-72
2023/06/04 03:57:28;;;;;;;1999.90;999.90;;;9.30;99.90;;;;;;5100491;28;20424;-70
2023/06/04 03:59:55;;;;;;;1999.90;999.90;;;9.10;99.90;;;;;;5094744;28;20471;-72
2023/06/04 04:02:21;;;;;;;1999.90;999.90;;;9.00;99.90;;;;;;5113783;27;20430;-71
2023/06/04 04:04:49;;;;;;;1999.90;999.90;;;8.90;99.90;;;;;;5106441;28;20479;-69
2023/06/04 04:07:16;;;;;;;1999.90;999.90;;;8.90;99.90;;;;;;5106400;27;20420;-71
2023/06/04 04:09:44;;;;;;;1999.90;999.90;;;8.80;99.90;;;;;;5103978;27;20477;-70
2023/06/04 04:12:11;;;;;;;1999.90;999.90;;;9.10;99.90;;;;;;5107315;27;20419;-71
2023/06/04 04:14:37;;;;;;;1999.90;999.90;;;9.30;99.90;;;;;;5094474;28;20479;-70
2023/06/04 04:17:04;;;;;;;1999.90;999.90;;;9.40;99.90;;;;;;5114134;27;20435;-70
2023/06/04 04:19:31;;;;;;;1999.90;999.90;;;9.50;99.90;;;;;;5102178;28;20430;-70
2023/06/04 04:21:58;;;;;;;1999.90;999.90;;;9.70;99.90;;;;;;5108499;28;20473;-71
2023/06/04 04:24:25;;;;;;;1999.90;999.90;;;9.80;99.90;;;;;;5094386;28;20430;-71
2023/06/04 04:26:54;;;;;;;1999.90;999.90;;;9.90;99.90;;;;;;5100781;28;20436;-72
2023/06/04 04:29:22;;;;;;;1999.90;999.90;;;10.20;99.90;;;;;;5109661;28;20426;-73
2023/06/04 04:31:49;;;;;;;1999.90;999.90;;;10.80;99.90;;;;;;5105280;28;20855;-73
2023/06/04 04:34:16;;;;;;;1999.90;999.90;;;11.60;99.90;;;;;;5107818;28;20559;-73
2023/06/04 04:36:43;;;;;;;1999.90;999.90;;;12.20;99.90;;;;;;5101144;28;20487;-73
2023/06/04 04:39:10;;;;;;;1999.90;999.90;;;13.00;99.90;;;;;;5111297;28;20509;-73
2023/06/04 04:41:38;;;;;;;1999.90;999.90;;;13.50;99.90;;;;;;5111773;28;20434;-73
2023/06/04 04:44:06;;;;;;;1999.90;999.90;;;14.30;99.90;;;;;;5102610;28;20432;-73
2023/06/04 04:46:33;;;;;;;1999.90;999.90;;;14.20;99.90;;;;;;5098932;28;20445;-73
2023/06/04 04:48:59;;;;;;;1999.90;999.90;;;14.40;99.90;;;;;;5104891;28;20475;-73
2023/06/04 04:51:26;;;;;;;1999.90;999.90;;;14.80;99.90;;;;;;5109413;28;20424;-73
2023/06/04 04:53:54;;;;;;;1999.90;999.90;;;15.00;99.20;;;;;;5098719;28;20438;-73
2023/06/04 04:56:22;;;;;;;1999.90;999.90;;;15.30;99.40;;;;;;5101309;28;20910;-73
2023/06/04 04:58:48;;;;;;;1999.90;999.90;;;15.70;98.00;;;;;;5111470;28;20483;-73
2023/06/04 05:01:16;;;;;;;1999.90;999.90;;;15.90;97.40;;;;;;5111450;28;20428;-74
2023/06/04 05:03:43;;;;;;;1999.90;999.90;;;16.00;96.50;;;;;;5103222;28;20432;-73
2023/06/04 05:06:10;;;;;;;1999.90;999.90;;;16.40;96.10;;;;;;5100147;28;20434;-73
2023/06/04 05:08:37;;;;;;;1999.90;999.90;;;16.10;96.10;;;;;;5105675;28;20428;-73
2023/06/04 05:11:04;;;;;;;1999.90;999.90;;;16.30;96.30;;;;;;5102717;28;20429;-73
2023/06/04 05:13:30;;;;;;;1999.90;999.90;;;16.30;96.00;;;;;;5103449;28;20428;-72
2023/06/04 05:15:57;;;;;;;1999.90;999.90;;;16.30;95.70;;;;;;5103505;28;20425;-70
2023/06/04 05:18:28;;;;;;;1999.90;999.90;;;16.20;96.30;;;;;;5099403;28;20468;-74
2023/06/04 05:20:55;;;;;;;1999.90;999.90;;;16.60;95.60;;;;;;5107911;28;20481;-70
2023/06/04 05:23:22;;;;;;;1999.90;999.90;;;16.50;94.40;;;;;;5114914;28;20927;-73
2023/06/04 05:25:49;;;;;;;1999.90;999.90;;;16.20;94.50;;;;;;5106355;28;20826;-71
2023/06/04 05:28:16;;;;;;;1999.90;999.90;;;16.10;95.30;;;;;;5108637;28;20428;-70
2023/06/04 05:30:43;;;;;;;1999.90;999.90;;;16.30;95.40;;;;;;5107376;28;20476;-73
2023/06/04 05:33:17;;;;;;;1999.90;999.90;;;16.30;95.90;;;;;;5113344;28;20475;-74
2023/06/04 05:35:48;;;;;;;1999.90;999.90;;;16.60;94.80;;;;;;5115052;28;20794;-73
2023/06/04 05:38:17;;;;;;;1999.90;999.90;;;16.50;95.10;;;;;;5104166;28;20925;-75
2023/06/04 05:40:43;;;;;;;1999.90;999.90;;;16.90;95.00;;;;;;5100630;28;20428;-73
2023/06/04 05:43:10;;;;;;;1999.90;999.90;;;17.00;94.30;;;;;;5109202;28;20424;-72
2023/06/04 05:45:37;;;;;;;1999.90;999.90;;;17.70;94.40;;;;;;5092375;28;20438;-76
2023/06/04 05:48:04;;;;;;;1999.90;999.90;;;17.50;93.60;;;;;;5105979;28;20428;-75
2023/06/04 05:50:30;;;;;;;1999.90;999.90;;;17.60;93.50;;;;;;5101999;22;20437;-71
2023/06/04 05:52:58;;;;;;;1999.90;999.90;;;17.50;93.60;;;;;;5054842;28;20496;-72
2023/06/04 05:55:25;;;;;;;1999.90;999.90;;;17.60;92.70;;;;;;5047635;28;20460;-72
2023/06/04 05:57:52;;;;;;;1999.90;999.90;;;17.70;91.80;;;;;;5039492;28;20897;-72
2023/06/04 06:00:19;;;;;;;1999.90;999.90;;;17.70;91.60;;;;;;5042305;28;20479;-73
2023/06/04 06:02:48;;;;;;;1999.90;999.90;;;17.70;91.70;;;;;;5051751;28;20436;-72
2023/06/04 06:05:15;;;;;;;1999.90;999.90;;;17.60;91.40;;;;;;5050811;28;20430;-72
2023/06/04 06:07:42;;;;;;;1999.90;999.90;;;17.50;92.80;;;;;;5050711;28;20429;-72
2023/06/04 06:10:11;;;;;;;1999.90;999.90;;;18.00;92.80;;;;;;5050070;28;20429;-70
2023/06/04 06:12:38;;;;;;;1999.90;999.90;;;18.00;90.30;;;;;;5049556;28;20436;-72
2023/06/04 06:15:06;;;;;;;1999.90;999.90;;;18.00;89.90;;;;;;5048382;28;20562;-72
2023/06/04 06:17:33;;;;;;;1999.90;999.90;;;17.80;90.70;;;;;;5048543;28;20433;-72
2023/06/04 06:20:01;;;;;;;1999.90;999.90;;;17.30;91.30;;;;;;5049961;28;20426;-73
2023/06/04 06:22:28;;;;;;;1999.90;999.90;;;17.30;91.80;;;;;;5052205;28;20423;-72
2023/06/04 06:24:54;;;;;;;1999.90;999.90;;;17.50;91.90;;;;;;5043751;28;20520;-73
2023/06/04 06:27:22;;;;;;;1999.90;999.90;;;17.60;91.20;;;;;;5049369;28;20491;-72
2023/06/04 06:29:49;;;;;;;1999.90;999.90;;;17.70;91.80;;;;;;5048147;28;20429;-72
2023/06/04 06:32:15;;;;;;;1999.90;999.90;;;17.50;92.10;;;;;;5050383;28;20487;-72
2023/06/04 06:34:42;;;;;;;1999.90;999.90;;;17.60;91.80;;;;;;5049692;28;20429;-72
2023/06/04 06:37:09;;;;;;;1999.90;999.90;;;17.60;92.70;;;;;;5048917;28;20570;-70
2023/06/04 06:39:35;;;;;;;1999.90;999.90;;;17.60;93.40;;;;;;5048434;28;20494;-72
2023/06/04 06:42:02;;;;;;;1999.90;999.90;;;18.10;93.30;;;;;;5050044;28;20429;-72
2023/06/04 06:44:30;;;;;;;1999.90;999.90;;;17.70;92.50;;;;;;5050461;28;20514;-71
2023/06/04 06:46:57;;;;;;;1999.90;999.90;;;17.60;92.70;;;;;;5049631;28;20547;-70
2023/06/04 06:49:23;;;;;;;1999.90;999.90;;;17.90;93.20;;;;;;5050249;28;20846;-72
2023/06/04 06:51:50;;;;;;;1999.90;999.90;;;18.20;92.50;;;;;;5047645;28;20418;-73
2023/06/04 06:54:17;;;;;;;1999.90;999.90;;;18.30;92.20;;;;;;5031944;28;20469;-72
2023/06/04 06:56:44;;;;;;;1999.90;999.90;;;18.50;91.90;;;;;;5032191;28;20407;-72
2023/06/04 06:59:11;;;;;;;1999.90;999.90;;;18.60;92.60;;;;;;5035390;28;20433;-73
2023/06/04 07:01:39;;;;;;;1999.90;999.90;;;18.20;93.00;;;;;;5050493;28;20433;-70
2023/06/04 07:04:06;;;;;;;1999.90;999.90;;;18.50;93.30;;;;;;5037714;28;20426;-71
2023/06/04 07:06:33;;;;;;;1999.90;999.90;;;18.80;93.20;;;;;;5031634;28;20415;-72
2023/06/04 07:08:59;;;;;;;1999.90;999.90;;;18.90;92.40;;;;;;5031266;28;20856;-72
2023/06/04 07:11:26;;;;;;;1999.90;999.90;;;18.40;92.70;;;;;;5036344;28;20985;-72
2023/06/04 07:13:52;;;;;;;1999.90;999.90;;;18.20;92.50;;;;;;5048053;28;20474;-72
2023/06/04 07:16:20;;;;;;;1999.90;999.90;;;18.20;93.10;;;;;;5032030;28;20419;-72
2023/06/04 07:18:48;;;;;;;1999.90;999.90;;;18.60;92.70;;;;;;5031265;28;20782;-72
2023/06/04 07:21:15;;;;;;;1999.90;999.90;;;18.90;91.30;;;;;;5031336;28;20411;-71
2023/06/04 07:23:41;;;;;;;1999.90;999.90;;;19.10;90.50;;;;;;5039320;28;20437;-72
2023/06/04 07:26:09;;;;;;;1999.90;999.90;;;19.40;90.40;;;;;;5045353;28;20414;-73
2023/06/04 07:28:35;;;;;;;1999.90;999.90;;;19.80;90.20;;;;;;5031249;28;20427;-70
2023/06/04 07:31:02;;;;;;;1999.90;999.90;;;19.80;90.30;;;;;;5031032;28;20829;-72
2023/06/04 07:33:29;;;;;;;1999.90;999.90;;;19.60;90.20;;;;;;5036080;28;20429;-72
2023/06/04 07:35:57;;;;;;;1999.90;999.90;;;19.70;89.40;;;;;;5050421;28;20868;-72
2023/06/04 07:38:23;;;;;;;1999.90;999.90;;;19.60;90.20;;;;;;5034205;28;20901;-72
2023/06/04 07:40:51;;;;;;;1999.90;999.90;;;19.80;88.70;;;;;;5030893;28;20415;-72
2023/06/04 07:43:17;;;;;;;1999.90;999.90;;;19.90;87.50;;;;;;5037348;28;20432;-72
2023/06/04 07:45:44;;;;;;;1999.90;999.90;;;19.50;87.00;;;;;;5042249;28;20503;-72
2023/06/04 07:48:11;;;;;;;1999.90;999.90;;;19.80;87.80;;;;;;5044156;28;20422;-72
2023/06/04 07:50:38;;;;;;;1999.90;999.90;;;19.80;85.80;;;;;;5030465;28;20778;-72
2023/06/04 07:53:06;;;;;;;1999.90;999.90;;;19.90;85.70;;;;;;5034942;28;20429;-72
2023/06/04 07:55:33;;;;;;;1999.90;999.90;;;20.30;85.20;;;;;;5050251;28;20418;-73
2023/06/04 07:58:00;;;;;;;1999.90;999.90;;;20.30;82.90;;;;;;5031174;28;20423;-72
2023/06/04 08:00:26;;;;;;;1999.90;999.90;;;20.20;81.50;;;;;;5031228;28;20411;-73
2023/06/04 08:02:53;;;;;;;1999.90;999.90;;;20.60;84.30;;;;;;5035667;28;20438;-72
2023/06/04 08:05:19;;;;;;;1999.90;999.90;;;20.70;83.80;;;;;;5051087;28;20413;-72
2023/06/04 08:07:47;;;;;;;1999.90;999.90;;;20.90;85.00;;;;;;5032189;28;20419;-72
2023/06/04 08:10:15;;;;;;;1999.90;999.90;;;20.90;82.40;;;;;;5038589;28;20491;-74
2023/06/04 08:12:42;;;;;;;1999.90;999.90;;;21.00;79.50;;;;;;5049413;28;20433;-72
2023/06/04 08:15:10;;;;;;;1999.90;999.90;;;20.70;77.80;;;;;;5058955;28;20419;-71
2023/06/04 08:17:37;;;;;;;1999.90;999.90;;;21.10;76.80;;;;;;5035804;28;20513;-73
2023/06/04 08:20:06;;;;;;;1999.90;999.90;;;21.20;75.10;;;;;;5032630;28;20414;-74
2023/06/04 08:22:33;;;;;;;1999.90;999.90;;;21.40;73.00;;;;;;5049279;28;20436;-72
2023/06/04 08:24:59;;;;;;;1999.90;999.90;;;21.20;70.50;;;;;;5039856;28;20649;-72
2023/06/04 08:27:29;;;;;;;1999.90;999.90;;;21.40;68.20;;;;;;5030808;28;21413;-72
2023/06/04 08:29:55;;;;;;;1999.90;999.90;;;21.60;70.10;;;;;;5031125;28;20422;-70
2023/06/04 08:32:22;;;;;;;1999.90;999.90;;;21.70;69.50;;;;;;5047602;28;20486;-73
2023/06/04 08:34:49;;;;;;;1999.90;999.90;;;21.60;69.10;;;;;;5040178;28;20469;-73
2023/06/04 08:37:16;;;;;;;1999.90;999.90;;;21.80;67.90;;;;;;5031708;28;20418;-71
2023/06/04 08:39:42;;;;;;;1999.90;999.90;;;21.80;67.80;;;;;;5031075;28;20422;-74
2023/06/04 08:42:15;;;;;;;1999.90;999.90;;;21.70;67.70;;;;;;5031295;28;20482;-73
2023/06/04 08:44:44;;;;;;;1999.90;999.90;;;21.90;68.60;;;;;;5047516;28;20429;-73
2023/06/04 08:47:14;;;;;;;1999.90;999.90;;;22.20;65.20;;;;;;5036344;28;20423;-72
2023/06/04 08:49:41;;;;;;;1999.90;999.90;;;21.80;62.40;;;;;;5030740;28;20888;-72
2023/06/04 08:52:08;;;;;;;1999.90;999.90;;;22.10;61.30;;;;;;5032868;28;20498;-72
2023/06/04 08:54:35;;;;;;;1999.90;999.90;;;21.80;60.00;;;;;;5042362;28;20475;-72
2023/06/04 08:57:02;;;;;;;1999.90;999.90;;;21.80;61.80;;;;;;5050394;28;20452;-73
2023/06/04 08:59:29;;;;;;;1999.90;999.90;;;21.60;59.30;;;;;;5050049;28;20910;-73
2023/06/04 09:01:58;;;;;;;1999.90;999.90;;;21.50;62.00;;;;;;5049888;28;20417;-73
2023/06/04 09:04:25;;;;;;;1999.90;999.90;;;21.60;61.00;;;;;;5050399;28;20463;-72
2023/06/04 09:06:53;;;;;;;1999.90;999.90;;;21.50;60.40;;;;;;5030822;28;20419;-73
2023/06/04 09:09:21;;;;;;;1999.90;999.90;;;21.70;61.20;;;;;;5030045;28;20762;-73
2023/06/04 09:11:52;;;;;;;1999.90;999.90;;;21.70;60.10;;;;;;5030247;28;20427;-73
2023/06/04 09:14:19;;;;;;;1999.90;999.90;;;21.50;61.20;;;;;;5033765;28;20437;-73
2023/06/04 09:16:47;;;;;;;1999.90;999.90;;;21.70;60.90;;;;;;5047862;28;20431;-72
2023/06/04 09:19:16;;;;;;;1999.90;999.90;;;21.90;61.10;;;;;;5030036;28;20449;-72
2023/06/04 09:21:50;;;;;;;1999.90;999.90;;;21.90;60.00;;;;;;5029945;28;20419;-73
2023/06/04 09:24:17;;;;;;;1999.90;999.90;;;22.10;59.20;;;;;;5030197;28;20406;-72
2023/06/04 09:26:43;;;;;;;1999.90;999.90;;;21.60;58.70;;;;;;5035547;28;20498;-73
2023/06/04 09:29:10;;;;;;;1999.90;999.90;;;21.60;58.90;;;;;;5046338;28;20421;-73
2023/06/04 09:31:39;;;;;;;1999.90;999.90;;;21.50;57.70;;;;;;5033760;28;20497;-71
2023/06/04 09:34:06;;;;;;;1999.90;999.90;;;21.60;59.30;;;;;;5034072;28;20802;-72
2023/06/04 09:36:35;;;;;;;1999.90;999.90;;;21.70;58.80;;;;;;5036353;28;20758;-73
2023/06/04 09:39:03;;;;;;;1999.90;999.90;;;22.00;59.30;;;;;;5048717;28;20498;-74
2023/06/04 09:41:29;;;;;;;1999.90;999.90;;;22.20;58.90;;;;;;5034112;28;20411;-73
2023/06/04 09:44:03;;;;;;;1999.90;999.90;;;22.50;59.00;;;;;;5033899;28;20468;-73
2023/06/04 09:46:30;;;;;;;1999.90;999.90;;;22.30;56.70;;;;;;5034355;28;20543;-73
2023/06/04 09:49:01;;;;;;;1999.90;999.90;;;22.20;58.50;;;;;;5040240;28;20424;-73
2023/06/04 09:51:29;;;;;;;1999.90;999.90;;;22.50;58.20;;;;;;5052603;28;20435;-72
2023/06/04 09:53:58;;;;;;;1999.90;999.90;;;22.60;57.80;;;;;;5041172;28;20418;-70
2023/06/04 09:56:26;;;;;;;1999.90;999.90;;;22.60;56.80;;;;;;5033926;28;20419;-73
2023/06/04 09:58:55;;;;;;;1999.90;999.90;;;22.80;57.00;;;;;;5033765;28;20466;-73
2023/06/04 10:01:24;;;;;;;1999.90;999.90;;;22.80;57.50;;;;;;5044590;28;20875;-72
2023/06/04 10:03:52;;;;;;;1999.90;999.90;;;22.70;56.60;;;;;;5053333;28;20412;-72
2023/06/04 10:06:20;;;;;;;1999.90;999.90;;;22.90;56.20;;;;;;5053392;28;20409;-72
2023/06/04 10:08:48;;;;;;;1999.90;999.90;;;22.90;55.20;;;;;;5052830;28;20409;-73
2023/06/04 10:11:21;;;;;;;1999.90;999.90;;;23.20;55.80;;;;;;5052756;28;20428;-73
2023/06/04 10:14:01;;;;;;;1999.90;999.90;;;23.10;55.00;;;;;;5052404;28;20444;-72
2023/06/04 10:16:30;;;;;;;1999.90;999.90;;;21.70;56.80;;;;;;5036332;28;20456;-73
2023/06/04 10:18:57;;;;;;;1999.90;999.90;;;22.00;57.70;;;;;;5033653;28;20441;-73
2023/06/04 10:21:25;;;;;;;1999.90;999.90;;;22.50;57.20;;;;;;5033128;28;20403;-73
2023/06/04 10:23:52;;;;;;;1999.90;999.90;;;22.60;55.70;;;;;;5042764;28;20984;-75
2023/06/04 10:26:21;;;;;;;1999.90;999.90;;;22.80;55.70;;;;;;5052081;28;20429;-73
2023/06/04 10:28:48;;;;;;;1999.90;999.90;;;23.20;55.90;;;;;;5032386;28;20419;-72
2023/06/04 10:31:16;;;;;;;1999.90;999.90;;;23.50;55.40;;;;;;5032565;28;20426;-73
2023/06/04 10:33:43;;;;;;;1999.90;999.90;;;23.30;54.20;;;;;;5036597;28;20434;-74
2023/06/04 10:36:19;;;;;;;1999.90;999.90;;;23.30;54.60;;;;;;5052251;28;20542;-73
2023/06/04 10:38:47;;;;;;;1999.90;999.90;;;22.70;54.90;;;;;;5041354;28;20418;-74
2023/06/04 10:41:15;;;;;;;1999.90;999.90;;;22.80;54.70;;;;;;5031947;28;20464;-74
2023/06/04 10:43:43;;;;;;;1999.90;999.90;;;22.70;54.70;;;;;;5035448;28;20433;-74
2023/06/04 10:46:14;;;;;;;1999.90;999.90;;;23.10;54.30;;;;;;5046825;28;20418;-73
2023/06/04 10:48:49;;;;;;;1999.90;999.90;;;22.80;53.60;;;;;;5032742;28;20419;-73
2023/06/04 10:51:16;;;;;;;1999.90;999.90;;;22.60;53.50;;;;;;5032404;28;20514;-72
2023/06/04 10:53:43;;;;;;;1999.90;999.90;;;22.80;54.00;;;;;;5032864;28;20469;-73
2023/06/04 10:56:09;;;;;;;1999.90;999.90;;;22.70;52.80;;;;;;5037320;28;20922;-72
2023/06/04 10:58:36;;;;;;;1999.90;999.90;;;22.70;53.00;;;;;;5050630;28;20421;-72
2023/06/04 11:01:04;;;;;;;1999.90;999.90;;;22.60;52.80;;;;;;5040465;28;20572;-73
2023/06/04 11:03:37;;;;;;;1999.90;999.90;;;22.70;53.20;;;;;;5052262;28;20425;-73
2023/06/04 11:06:16;;;;;;;1999.90;999.90;;;23.00;54.50;;;;;;5051697;28;20417;-72
2023/06/04 11:08:43;;;;;;;1999.90;999.90;;;23.30;52.50;;;;;;5051480;28;20423;-73
2023/06/04 11:11:13;;;;;;;1999.90;999.90;;;23.40;52.70;;;;;;5049205;28;20425;-74
2023/06/04 11:13:39;;;;;;;1999.90;999.90;;;23.40;51.90;;;;;;5041654;28;20527;-73
2023/06/04 11:16:17;;;;;;;1999.90;999.90;;;23.50;51.50;;;;;;5031678;28;20423;-72
2023/06/04 11:18:44;;;;;;;1999.90;999.90;;;23.60;51.20;;;;;;5035301;28;20432;-73
2023/06/04 11:21:14;;;;;;;1999.90;999.90;;;23.80;50.90;;;;;;5042411;28;20413;-73
2023/06/04 11:23:41;;;;;;;1999.90;999.90;;;24.10;50.80;;;;;;5051474;28;20424;-73
2023/06/04 11:26:08;;;;;;;1999.90;999.90;;;24.10;51.80;;;;;;5051474;28;20475;-70
2023/06/04 11:28:34;;;;;;;1999.90;999.90;;;23.60;50.60;;;;;;5050552;28;20463;-74
2023/06/04 11:31:03;;;;;;;1999.90;999.90;;;23.80;51.60;;;;;;5050017;28;20429;-73
2023/06/04 11:33:31;;;;;;;1999.90;999.90;;;23.60;50.30;;;;;;5034490;28;20474;-73
2023/06/04 11:35:57;;;;;;;1999.90;999.90;;;23.80;50.90;;;;;;5031324;28;20465;-73
2023/06/04 11:38:24;;;;;;;1999.90;999.90;;;23.60;49.80;;;;;;5031478;28;20423;-73
2023/06/04 11:40:59;;;;;;;1999.90;999.90;;;23.90;51.00;;;;;;5036655;28;20425;-73
2023/06/04 11:43:26;;;;;;;1999.90;999.90;;;22.60;50.10;;;;;;5043086;28;20469;-73
2023/06/04 11:45:52;;;;;;;1999.90;999.90;;;22.30;52.50;;;;;;5031565;28;20426;-73
2023/06/04 11:48:20;;;;;;;1999.90;999.90;;;22.80;53.00;;;;;;5030999;28;20862;-73
2023/06/04 11:50:48;;;;;;;1999.90;999.90;;;23.60;52.10;;;;;;5035196;28;20430;-73
2023/06/04 11:53:15;;;;;;;1999.90;999.90;;;24.10;51.70;;;;;;5044849;28;20531;-73
2023/06/04 11:55:42;;;;;;;1999.90;999.90;;;23.60;52.70;;;;;;5031439;28;20415;-72
2023/06/04 11:58:09;;;;;;;1999.90;999.90;;;23.70;52.60;;;;;;5031327;28;20473;-73
2023/06/04 12:00:36;;;;;;;1999.90;999.90;;;23.50;52.90;;;;;;5031051;28;20848;-71
2023/06/04 12:03:02;;;;;;;1999.90;999.90;;;23.40;51.60;;;;;;5034804;28;20926;-75